Time;durP1;ratioP1;P1;durP2;ratioP2;P2;SDS_P1;SDS_P2;PMS_P1;PMS_P2;Temp;Humidity;BMP_temperature;BMP_pressure;BME280_temperature;BME280_humidity;BME280_pressure;Samples;Min_cycle;Max_cycle;Signal;HPM_P1;HPM_P2
2022/05/03 00:02:37;;;;;;;3.53;3.23;;;;;;;6.85;81.78;97542.31;6146981;28;20247;-84
2022/05/03 00:06:16;;;;;;;3.60;3.30;;;;;;;6.77;81.97;97539.38;6170436;28;20324;-84
2022/05/03 00:10:02;;;;;;;3.63;3.20;;;;;;;6.69;81.71;97537.25;6197262;28;20381;-84
2022/05/03 00:13:08;;;;;;;4.57;3.60;;;;;;;6.62;82.03;97531.59;6212523;28;20283;-84
2022/05/03 00:16:13;;;;;;;4.63;3.20;;;;;;;6.56;82.54;97529.38;6197315;28;20385;-84
2022/05/03 00:19:15;;;;;;;3.23;2.87;;;;;;;6.54;82.30;97527.81;6212445;28;20232;-84
2022/05/03 00:22:19;;;;;;;3.60;2.80;;;;;;;6.55;82.67;97526.88;6212914;28;20237;-84
2022/05/03 00:25:22;;;;;;;3.60;3.30;;;;;;;6.57;82.99;97528.44;6212976;28;20229;-84
2022/05/03 00:28:25;;;;;;;6.27;3.43;;;;;;;6.52;82.62;97527.06;6212516;28;20321;-84
2022/05/03 00:31:28;;;;;;;3.50;3.20;;;;;;;6.45;83.03;97517.94;6196790;28;20317;-84
2022/05/03 00:34:32;;;;;;;2.87;2.60;;;;;;;6.41;82.72;97532.16;6233204;28;20246;-84
2022/05/03 00:37:34;;;;;;;3.87;2.80;;;;;;;6.38;82.58;97532.38;6212507;28;20244;-84
2022/05/03 00:40:44;;;;;;;6.03;3.67;;;;;;;6.35;83.10;97529.97;6195411;28;20326;-84
2022/05/03 00:44:55;;;;;;;3.10;2.80;;;;;;;6.29;83.24;97529.41;6212476;28;20905;-84
2022/05/03 00:47:39;;;;;;;3.47;3.17;;;;;;;6.24;83.46;97533.28;6226932;28;20584;-84
2022/05/03 00:50:55;;;;;;;4.20;3.47;;;;;;;6.20;83.39;97529.16;6213139;28;20228;-84
2022/05/03 00:54:23;;;;;;;3.83;3.40;;;;;;;6.15;84.05;97533.88;6211919;28;20308;-84
2022/05/03 00:57:44;;;;;;;3.77;3.47;;;;;;;6.10;83.86;97526.31;6229427;28;20279;-84
2022/05/03 01:05:11;;;;;;;3.40;3.10;;;;;;;6.06;84.26;97529.25;6227441;28;20735;-84
2022/05/03 01:08:38;;;;;;;3.87;3.40;;;;;;;6.05;84.64;97519.69;6195458;28;20721;-84
2022/05/03 01:12:18;;;;;;;3.80;3.50;;;;;;;6.05;84.96;97525.78;6228573;28;20708;-83
2022/05/03 01:15:24;;;;;;;3.17;2.80;;;;;;;6.03;84.85;97526.81;6214318;28;20239;-84
2022/05/03 01:18:41;;;;;;;3.10;2.77;;;;;;;6.02;84.48;97528.59;6228509;28;20228;-84
2022/05/03 01:21:55;;;;;;;3.10;2.83;;;;;;;6.01;85.14;97526.06;6211919;28;20234;-84
2022/05/03 01:25:35;;;;;;;3.23;3.00;;;;;;;5.98;85.00;97523.66;6190910;28;20233;-84
2022/05/03 01:29:25;;;;;;;3.20;2.97;;;;;;;5.96;84.67;97523.75;6227797;28;20243;-84
2022/05/03 01:32:31;;;;;;;3.27;2.97;;;;;;;5.95;84.99;97535.16;6140193;28;20742;-84
2022/05/03 01:35:39;;;;;;;5.07;3.10;;;;;;;5.93;84.55;97530.03;6135307;28;20281;-84
2022/05/03 01:38:56;;;;;;;4.07;3.20;;;;;;;5.93;84.62;97535.25;6168332;28;20641;-84
2022/05/03 01:42:09;;;;;;;3.10;2.90;;;;;;;5.95;84.95;97529.09;6124338;28;20240;-84
2022/05/03 01:45:11;;;;;;;3.17;2.87;;;;;;;5.89;85.54;97533.75;6141810;28;20421;-84
2022/05/03 01:52:14;;;;;;;3.57;3.00;;;;;;;5.77;85.05;97528.47;6152836;28;20436;-84
2022/05/03 01:56:00;;;;;;;3.50;3.17;;;;;;;5.74;85.13;97516.41;6120299;28;20256;-84
2022/05/03 01:59:12;;;;;;;3.40;3.10;;;;;;;5.73;85.43;97516.47;6126276;28;20838;-84
2022/05/03 02:02:35;;;;;;;4.63;3.40;;;;;;;5.70;85.21;97520.13;6136798;28;20240;-84
2022/05/03 02:05:50;;;;;;;4.80;3.77;;;;;;;5.66;84.67;97523.06;6143705;28;20221;-84
2022/05/03 02:09:03;;;;;;;4.23;3.17;;;;;;;5.60;85.41;97511.19;6211226;28;20229;-84
2022/05/03 02:12:15;;;;;;;5.30;3.10;;;;;;;5.57;85.68;97516.63;6194256;28;20228;-84
2022/05/03 02:15:37;;;;;;;3.60;3.13;;;;;;;5.57;85.19;97517.47;6202369;28;20213;-84
2022/05/03 02:18:59;;;;;;;3.70;3.40;;;;;;;5.59;85.60;97522.56;6176115;28;20249;-84
2022/05/03 02:22:10;;;;;;;4.30;3.90;;;;;;;5.55;85.59;97515.88;6174931;28;20290;-83
2022/05/03 02:25:34;;;;;;;3.73;3.33;;;;;;;5.48;85.16;97515.44;6208269;28;20319;-83
2022/05/03 02:28:46;;;;;;;3.80;3.40;;;;;;;5.43;85.82;97508.78;6198194;28;20237;-84
2022/05/03 02:32:11;;;;;;;3.67;3.37;;;;;;;5.40;85.95;97511.59;6206775;28;20378;-84
2022/05/03 02:35:19;;;;;;;5.03;3.90;;;;;;;5.38;85.56;97508.25;6205914;28;20766;-84
2022/05/03 02:38:36;;;;;;;3.87;3.47;;;;;;;5.37;85.48;97503.94;6226430;28;20229;-84
2022/05/03 02:41:39;;;;;;;4.47;3.60;;;;;;;5.37;85.91;97507.41;6215191;28;20221;-84
2022/05/03 02:44:43;;;;;;;3.90;3.50;;;;;;;5.37;85.68;97512.63;6233206;28;20722;-83
2022/05/03 02:48:18;;;;;;;4.27;3.70;;;;;;;5.37;85.96;97503.94;6206195;28;20724;-84
2022/05/03 02:51:27;;;;;;;4.10;3.70;;;;;;;5.35;85.88;97506.66;6221471;28;20255;-84
2022/05/03 02:54:48;;;;;;;4.13;3.83;;;;;;;5.35;86.29;97511.03;6215433;28;20702;-84
2022/05/03 02:57:59;;;;;;;3.40;3.13;;;;;;;5.33;86.13;97503.28;6230621;28;20252;-84
2022/05/03 03:05:08;;;;;;;4.13;3.73;;;;;;;5.27;86.75;97515.91;6230734;28;20238;-84
2022/05/03 03:08:12;;;;;;;5.37;3.87;;;;;;;5.25;85.66;97509.94;6197561;28;20320;-84
2022/05/03 03:11:31;;;;;;;4.63;3.80;;;;;;;5.23;86.40;97510.03;6214069;28;20240;-84
2022/05/03 03:14:36;;;;;;;4.33;3.93;;;;;;;5.16;86.39;97509.56;6213938;28;20375;-84
2022/05/03 03:17:50;;;;;;;4.20;3.80;;;;;;;5.15;86.74;97509.66;6211238;28;20218;-83
2022/05/03 03:20:58;;;;;;;4.37;3.13;;;;;;;5.12;86.38;97513.28;6207273;28;20279;-85
2022/05/03 03:24:01;;;;;;;4.53;3.60;;;;;;;5.14;86.58;97511.44;6217865;28;20273;-84
2022/05/03 03:27:05;;;;;;;5.73;3.70;;;;;;;5.13;86.71;97509.75;6230933;28;20270;-84
2022/05/03 03:30:10;;;;;;;4.57;4.00;;;;;;;5.15;86.86;97510.50;6213496;28;20245;-83
2022/05/03 03:33:13;;;;;;;4.83;4.40;;;;;;;5.18;86.62;97507.72;6213814;28;20216;-84
2022/05/03 03:36:16;;;;;;;6.07;4.87;;;;;;;5.18;86.69;97512.94;6230767;28;20558;-84
2022/05/03 03:39:18;;;;;;;4.73;4.13;;;;;;;5.22;86.83;97512.72;6213545;28;20207;-84
2022/05/03 03:42:21;;;;;;;4.70;4.20;;;;;;;5.26;86.85;97509.84;6198042;28;20294;-84
2022/05/03 03:45:23;;;;;;;4.17;3.70;;;;;;;5.32;86.84;97514.69;6213745;28;20233;-84
2022/05/03 03:48:26;;;;;;;7.60;4.30;;;;;;;5.33;87.01;97515.53;6197457;28;20704;-84
2022/05/03 03:51:29;;;;;;;4.50;4.10;;;;;;;5.36;87.31;97516.19;6197158;28;20228;-84
2022/05/03 03:54:31;;;;;;;4.20;3.80;;;;;;;5.34;86.67;97514.59;6212701;28;20220;-84
2022/05/03 03:57:35;;;;;;;3.87;3.57;;;;;;;5.38;86.72;97510.88;6229721;28;20232;-83
2022/05/03 04:00:38;;;;;;;4.03;3.63;;;;;;;5.41;86.77;97513.25;6228648;28;20364;-83
2022/05/03 04:03:42;;;;;;;4.13;3.73;;;;;;;5.47;86.31;97512.91;6212581;28;20235;-84
2022/05/03 04:06:44;;;;;;;4.47;4.07;;;;;;;5.52;87.17;97516.06;6229036;28;20327;-84
2022/05/03 04:09:46;;;;;;;5.23;4.77;;;;;;;5.56;86.64;97514.94;6228670;28;20243;-84
2022/05/03 04:12:49;;;;;;;4.73;3.90;;;;;;;5.56;86.89;97512.31;6196101;28;20240;-84
2022/05/03 04:15:53;;;;;;;5.33;3.97;;;;;;;5.57;86.57;97514.00;6219227;28;20712;-84
2022/05/03 04:18:55;;;;;;;4.30;3.90;;;;;;;5.59;86.70;97511.31;6204722;28;20232;-84
2022/05/03 04:22:12;;;;;;;4.67;4.27;;;;;;;5.63;86.74;97512.78;6226410;28;20283;-84
2022/05/03 04:25:15;;;;;;;4.60;4.20;;;;;;;5.64;86.43;97515.28;6212068;28;20351;-84
2022/05/03 04:28:17;;;;;;;4.13;3.73;;;;;;;5.66;86.40;97516.03;6213044;28;20294;-84
2022/05/03 04:31:19;;;;;;;4.20;3.80;;;;;;;5.70;87.13;97514.06;6197480;28;20240;-83
2022/05/03 04:34:21;;;;;;;4.47;4.07;;;;;;;5.73;87.19;97511.25;6231555;28;20242;-83
2022/05/03 04:37:24;;;;;;;4.60;4.20;;;;;;;5.77;86.80;97523.22;6231521;28;20229;-84
2022/05/03 04:40:26;;;;;;;4.67;3.63;;;;;;;5.81;86.53;97522.06;6214775;28;20225;-84
2022/05/03 04:43:28;;;;;;;3.97;3.60;;;;;;;5.87;86.46;97524.31;6229815;28;20255;-85
2022/05/03 04:46:30;;;;;;;3.97;3.57;;;;;;;5.95;86.88;97519.44;6211960;28;20234;-83
2022/05/03 04:49:33;;;;;;;4.53;3.90;;;;;;;6.00;86.53;97521.75;6187885;28;20715;-84
2022/05/03 04:52:35;;;;;;;4.77;3.53;;;;;;;6.07;86.42;97525.69;6203384;28;20279;-84
2022/05/03 04:55:38;;;;;;;5.03;4.00;;;;;;;6.06;86.23;97521.38;6211007;28;20239;-84
2022/05/03 04:58:40;;;;;;;4.23;3.83;;;;;;;6.07;86.29;97533.53;6211289;28;20314;-84
2022/05/03 05:01:49;;;;;;;4.10;3.70;;;;;;;6.10;86.58;97534.16;6211633;28;20232;-84
2022/05/03 05:04:51;;;;;;;5.27;3.80;;;;;;;6.12;86.06;97537.53;6215208;28;20241;-83
2022/05/03 05:07:53;;;;;;;3.70;3.40;;;;;;;6.16;86.06;97532.94;6211048;28;20239;-84
2022/05/03 05:10:55;;;;;;;4.20;3.80;;;;;;;6.19;85.98;97527.47;6215471;28;20242;-85
2022/05/03 05:13:58;;;;;;;4.23;3.83;;;;;;;6.25;86.03;97521.88;6210328;28;20394;-84
2022/05/03 05:17:00;;;;;;;4.27;3.93;;;;;;;6.31;86.42;97529.31;6202921;28;20326;-84
2022/05/03 05:20:02;;;;;;;4.73;4.33;;;;;;;6.40;85.85;97525.25;6202439;28;20270;-84
2022/05/03 05:23:06;;;;;;;4.07;3.67;;;;;;;6.50;86.30;97521.06;6209829;28;20591;-84
2022/05/03 05:26:22;;;;;;;3.80;3.50;;;;;;;6.65;86.02;97525.31;6227208;28;20601;-84
2022/05/03 05:29:24;;;;;;;4.17;3.80;;;;;;;6.76;85.92;97522.81;6194245;28;20240;-84
2022/05/03 05:32:26;;;;;;;4.50;4.10;;;;;;;6.92;86.07;97522.59;6204033;28;20316;-86
2022/05/03 05:35:29;;;;;;;3.60;3.30;;;;;;;7.07;85.78;97516.31;6210714;28;20303;-85
2022/05/03 05:38:31;;;;;;;4.43;4.07;;;;;;;7.25;85.46;97522.91;6195561;28;20775;-84
2022/05/03 05:41:33;;;;;;;4.30;3.90;;;;;;;7.38;84.77;97525.53;6194691;28;20254;-84
2022/05/03 05:44:35;;;;;;;4.40;4.00;;;;;;;7.51;85.15;97525.47;6227163;28;20234;-84
2022/05/03 05:47:37;;;;;;;3.87;3.50;;;;;;;7.62;84.61;97525.56;6202901;28;20243;-84
2022/05/03 05:50:40;;;;;;;3.43;3.13;;;;;;;7.72;84.48;97516.94;6190040;28;20293;-84
2022/05/03 05:53:43;;;;;;;3.83;3.53;;;;;;;7.86;84.50;97517.75;6202692;28;20246;-84
2022/05/03 05:56:46;;;;;;;4.53;4.13;;;;;;;8.01;84.07;97519.25;6208870;28;20242;-84
2022/05/03 05:59:48;;;;;;;4.10;3.70;;;;;;;8.21;84.90;97520.41;6210932;28;20239;-84
2022/05/03 06:02:51;;;;;;;4.33;3.50;;;;;;;8.41;84.58;97520.66;6210412;28;20636;-84
2022/05/03 06:05:53;;;;;;;4.20;3.80;;;;;;;8.58;84.28;97513.31;6209434;28;20599;-84
2022/05/03 06:08:55;;;;;;;4.07;3.67;;;;;;;8.71;84.15;97509.63;6210519;28;20284;-84
2022/05/03 06:11:58;;;;;;;4.20;3.80;;;;;;;8.81;83.74;97515.03;6210545;28;20229;-85
2022/05/03 06:15:00;;;;;;;3.90;3.60;;;;;;;8.85;83.80;97514.72;6224916;28;20715;-86
2022/05/03 06:18:04;;;;;;;4.07;3.77;;;;;;;8.88;84.04;97511.81;6209336;28;20250;-84
2022/05/03 06:21:10;;;;;;;4.30;3.83;;;;;;;8.94;83.79;97521.06;6227751;28;20650;-84
2022/05/03 06:24:13;;;;;;;3.87;3.57;;;;;;;9.04;84.13;97514.13;6210386;28;20303;-84
2022/05/03 06:27:15;;;;;;;3.90;3.50;;;;;;;9.12;84.09;97510.91;6210082;28;20246;-85
2022/05/03 06:30:20;;;;;;;4.43;4.03;;;;;;;9.21;84.30;97510.19;6193723;28;20244;-84
2022/05/03 06:33:23;;;;;;;4.43;4.03;;;;;;;9.34;84.46;97507.47;6194057;28;20285;-85
2022/05/03 06:36:25;;;;;;;3.90;3.60;;;;;;;9.49;84.45;97514.16;6204123;28;20289;-85
2022/05/03 06:39:27;;;;;;;4.17;3.87;;;;;;;9.74;84.15;97507.78;6209466;28;20227;-85
2022/05/03 06:42:35;;;;;;;4.60;4.13;;;;;;;10.00;83.87;97511.78;6210248;28;20393;-84
2022/05/03 06:45:37;;;;;;;4.57;4.17;;;;;;;10.33;83.09;97503.81;6223817;28;20258;-84
2022/05/03 06:48:39;;;;;;;5.00;3.90;;;;;;;10.60;82.46;97507.78;6210033;28;20352;-84
2022/05/03 06:51:41;;;;;;;4.53;4.17;;;;;;;10.86;81.87;97511.72;6226106;28;20274;-85
2022/05/03 06:54:43;;;;;;;4.10;3.80;;;;;;;11.28;81.15;97509.06;6210435;28;20310;-85
2022/05/03 06:57:46;;;;;;;3.60;3.30;;;;;;;11.65;79.94;97511.97;6211557;28;20751;-85
2022/05/03 07:00:48;;;;;;;4.33;3.93;;;;;;;12.06;79.07;97505.72;6213872;28;20247;-85
2022/05/03 09:02:56;;;;;;;1.37;1.27;;;;;;;23.99;32.94;97502.22;4572860;28;20231;-85
2022/05/03 09:05:59;;;;;;;1.93;1.53;;;;;;;24.14;30.86;97494.72;6213735;28;20258;-87
2022/05/03 09:09:02;;;;;;;1.40;1.30;;;;;;;24.03;31.68;97502.63;6236123;28;20246;-85
2022/05/03 09:12:07;;;;;;;1.40;1.30;;;;;;;24.49;31.80;97495.19;6220054;28;20679;-85
2022/05/03 09:15:09;;;;;;;1.23;1.13;;;;;;;24.69;30.34;97495.06;6217525;28;20370;-84
2022/05/03 09:18:32;;;;;;;1.30;1.20;;;;;;;24.73;29.33;97488.22;6235474;28;20210;-85
2022/05/03 09:25:04;;;;;;;1.73;1.30;;;;;;;24.93;29.34;97496.22;6206381;28;20226;-85
2022/05/03 09:28:07;;;;;;;1.17;1.03;;;;;;;25.33;27.86;97486.75;6217065;28;20235;-85
2022/05/03 09:31:09;;;;;;;1.30;1.20;;;;;;;25.43;27.47;97482.72;6214919;28;20227;-85
2022/05/03 09:34:19;;;;;;;3.27;1.60;;;;;;;25.50;27.85;97476.19;6210614;28;20263;-84
2022/05/03 09:37:38;;;;;;;3.87;1.33;;;;;;;25.59;27.87;97479.44;6223410;28;20255;-84
2022/05/03 09:40:44;;;;;;;1.55;1.35;;;;;;;25.48;27.49;97475.56;6227385;28;20281;-83
2022/05/03 09:44:01;;;;;;;1.50;1.40;;;;;;;25.77;26.11;97479.47;6206114;28;20285;-84
2022/05/03 09:47:11;;;;;;;1.20;1.10;;;;;;;26.19;26.01;97469.63;6219150;28;20216;-84
2022/05/03 09:50:32;;;;;;;4.20;1.55;;;;;;;26.74;26.66;97466.84;6209481;28;20665;-85
2022/05/03 09:53:34;;;;;;;2.15;1.30;;;;;;;27.30;26.59;97468.28;6208318;28;20232;-84
2022/05/03 09:56:39;;;;;;;1.13;1.08;;;;;;;27.43;25.83;97466.16;6225840;28;20959;-85
2022/05/03 09:59:46;;;;;;;1.33;1.17;;;;;;;27.36;25.55;97468.16;6226796;28;20237;-84
2022/05/03 10:02:49;;;;;;;1.60;1.40;;;;;;;27.42;24.41;97453.66;6191990;28;20746;-84
2022/05/03 10:05:52;;;;;;;2.25;1.80;;;;;;;27.73;26.94;97457.94;6191512;28;20239;-84
2022/05/03 10:08:55;;;;;;;1.40;1.30;;;;;;;27.57;25.61;97452.38;6191074;28;20293;-84
2022/05/03 10:11:58;;;;;;;1.35;1.25;;;;;;;27.82;24.54;97451.06;6193321;28;20770;-84
2022/05/03 10:15:00;;;;;;;1.33;1.23;;;;;;;27.98;24.12;97454.94;6227561;28;20238;-85
2022/05/03 10:21:27;;;;;;;1.20;1.00;;;;;;;28.02;24.95;97439.81;6226359;28;20341;-84
2022/05/03 10:24:31;;;;;;;1.65;1.42;;;;;;;28.46;25.77;97441.00;6209800;28;20224;-83
2022/05/03 10:27:53;;;;;;;2.00;1.65;;;;;;;28.46;22.90;97435.56;6212115;28;20246;-84
2022/05/03 10:31:04;;;;;;;2.47;1.60;;;;;;;28.85;24.61;97424.91;6193971;28;20305;-84
2022/05/03 10:34:45;;;;;;;3.75;1.70;;;;;;;27.98;24.12;97433.22;6183523;28;20232;-84
2022/05/03 10:37:47;;;;;;;3.70;1.40;;;;;;;27.40;24.35;97412.41;6214455;28;20334;-84
2022/05/03 10:40:49;;;;;;;1.75;1.50;;;;;;;26.98;24.94;97411.69;6199139;28;20342;-84
2022/05/03 10:43:52;;;;;;;3.13;1.77;;;;;;;26.55;26.09;97405.69;6198530;28;20707;-84
2022/05/03 10:47:03;;;;;;;2.03;1.73;;;;;;;25.72;26.97;97404.47;6204975;28;20232;-84
2022/05/03 10:50:17;;;;;;;2.95;1.42;;;;;;;24.85;27.56;97426.25;6194763;28;20779;-84
2022/05/03 10:53:25;;;;;;;2.13;1.60;;;;;;;23.76;28.84;97416.44;6217110;28;20236;-84
2022/05/03 10:56:27;;;;;;;1.45;1.35;;;;;;;24.93;29.93;97413.34;6231331;28;20781;-84
2022/05/03 10:59:47;;;;;;;3.38;1.50;;;;;;;26.16;28.98;97405.16;6189936;28;20709;-84
2022/05/03 11:03:18;;;;;;;2.35;1.58;;;;;;;26.48;25.11;97416.59;6197722;28;20228;-83
2022/05/03 11:06:25;;;;;;;3.85;1.55;;;;;;;26.81;25.09;97402.56;6214516;28;20247;-84
2022/05/03 11:09:29;;;;;;;1.55;1.45;;;;;;;27.22;26.38;97398.16;6213999;28;20785;-84
2022/05/03 11:12:51;;;;;;;2.67;1.52;;;;;;;26.24;26.04;97399.44;6192979;28;20608;-84
2022/05/03 11:16:20;;;;;;;1.50;1.40;;;;;;;25.24;26.74;97401.63;6188711;28;20258;-84
2022/05/03 11:19:23;;;;;;;4.75;1.75;;;;;;;25.24;29.08;97401.63;6166913;28;20278;-84
2022/05/03 11:22:31;;;;;;;1.80;1.48;;;;;;;24.72;28.49;97408.28;6204542;28;20248;-83
2022/05/03 11:25:39;;;;;;;3.05;1.85;;;;;;;24.40;27.87;97402.06;6225739;28;20312;-84
2022/05/03 11:28:41;;;;;;;3.25;1.70;;;;;;;24.45;27.89;97406.81;6198502;28;20718;-83
2022/05/03 11:31:53;;;;;;;2.95;1.50;;;;;;;24.56;28.87;97409.63;6200431;28;20231;-83
2022/05/03 11:35:06;;;;;;;2.38;1.40;;;;;;;24.68;29.56;97398.13;6199026;28;20700;-83
2022/05/03 11:38:11;;;;;;;1.10;1.00;;;;;;;24.70;29.66;97413.06;6200731;28;20238;-84
2022/05/03 11:41:33;;;;;;;1.60;1.20;;;;;;;24.53;30.32;97422.75;6232102;28;20232;-83
2022/05/03 11:44:43;;;;;;;1.20;1.08;;;;;;;24.16;31.08;97418.97;6196821;28;20715;-83
2022/05/03 11:47:49;;;;;;;1.33;1.23;;;;;;;23.61;31.87;97428.53;6227550;28;20232;-83
2022/05/03 11:57:56;;;;;;;1.13;1.03;;;;;;;22.36;33.06;97438.19;6213495;28;20230;-85
2022/05/03 12:01:14;;;;;;;1.57;1.17;;;;;;;21.87;33.40;97457.22;6198269;28;20274;-83
2022/05/03 12:04:16;;;;;;;1.90;1.20;;;;;;;21.43;34.14;97456.78;6213155;28;20647;-83
2022/05/03 12:07:21;;;;;;;1.47;1.30;;;;;;;21.25;35.64;97457.28;6197715;28;20235;-84
2022/05/03 12:10:25;;;;;;;1.10;1.00;;;;;;;21.20;36.00;97459.72;6230048;28;20607;-83
2022/05/03 12:13:31;;;;;;;0.90;0.90;;;;;;;21.04;36.03;97452.78;6212777;28;20317;-83
2022/05/03 12:16:34;;;;;;;0.80;0.80;;;;;;;20.94;36.78;97454.97;6211636;28;20246;-83
2022/05/03 12:19:38;;;;;;;0.93;0.87;;;;;;;20.96;36.70;97459.09;6213631;28;20232;-83
2022/05/03 12:22:41;;;;;;;1.10;1.00;;;;;;;21.00;36.97;97465.72;6212617;28;20247;-83
2022/05/03 12:25:51;;;;;;;1.27;1.00;;;;;;;21.01;37.77;97463.88;6212886;28;20614;-85
2022/05/03 12:28:59;;;;;;;0.87;0.87;;;;;;;20.91;38.12;97460.69;6229225;28;20236;-85
2022/05/03 12:32:15;;;;;;;2.43;0.90;;;;;;;20.73;39.02;97455.81;6202605;28;20246;-83
2022/05/03 12:35:28;;;;;;;1.77;0.90;;;;;;;20.68;40.38;97473.47;6229045;28;20232;-83
2022/05/03 12:38:31;;;;;;;0.93;0.83;;;;;;;20.66;40.23;97456.78;6188030;28;20315;-83
2022/05/03 12:41:34;;;;;;;0.70;0.70;;;;;;;20.72;40.99;97456.00;6225497;28;20511;-86
2022/05/03 12:44:55;;;;;;;0.83;0.83;;;;;;;20.80;43.53;97459.38;6228393;28;20236;-83
2022/05/03 12:47:57;;;;;;;0.90;0.90;;;;;;;20.70;45.14;97469.59;6221620;28;20279;-83
2022/05/03 12:51:03;;;;;;;1.00;0.90;;;;;;;20.55;46.82;97464.31;6211827;28;20250;-83
2022/05/03 12:54:07;;;;;;;1.37;0.80;;;;;;;20.50;48.23;97465.88;6196911;28;20262;-83
2022/05/03 13:00:33;;;;;;;2.57;1.20;;;;;;;20.33;50.93;97451.88;6229462;28;20224;-83
2022/05/03 13:03:36;;;;;;;1.43;1.20;;;;;;;20.32;51.30;97439.47;6195767;28;20232;-83
2022/05/03 13:06:38;;;;;;;2.33;1.13;;;;;;;20.35;53.16;97432.94;6211979;28;20329;-83
2022/05/03 13:09:41;;;;;;;1.47;1.20;;;;;;;20.37;53.54;97430.88;6204180;28;20282;-83
2022/05/03 13:12:43;;;;;;;1.63;1.13;;;;;;;20.54;54.57;97419.75;6227427;28;20232;-84
2022/05/03 13:15:45;;;;;;;3.70;1.10;;;;;;;21.02;54.56;97419.94;6213234;28;20266;-83
2022/05/03 13:18:48;;;;;;;2.30;1.10;;;;;;;21.09;52.74;97423.47;6225213;28;20234;-83
2022/05/03 13:22:04;;;;;;;2.17;1.30;;;;;;;20.86;53.48;97410.28;6199815;28;20248;-83
2022/05/03 13:25:07;;;;;;;1.20;1.10;;;;;;;21.08;53.00;97403.03;6198485;28;20231;-83
2022/05/03 13:28:09;;;;;;;1.67;1.20;;;;;;;21.64;52.80;97393.09;6215012;28;20255;-82
2022/05/03 13:31:14;;;;;;;3.37;1.33;;;;;;;22.59;51.94;97392.09;6196894;28;20366;-83
2022/05/03 13:34:17;;;;;;;1.50;1.20;;;;;;;22.93;50.78;97385.72;6198270;28;20239;-83
2022/05/03 13:40:41;;;;;;;1.43;1.03;;;;;;;24.09;47.25;97383.94;6212235;28;20238;-83
2022/05/03 13:43:44;;;;;;;1.37;1.00;;;;;;;25.49;39.89;97366.44;6211525;28;20234;-84
2022/05/03 13:46:47;;;;;;;3.17;1.00;;;;;;;26.80;37.27;97371.94;6210276;28;20966;-83
2022/05/03 13:49:50;;;;;;;3.50;1.00;;;;;;;26.88;35.71;97369.94;6188235;28;20235;-83
2022/05/03 13:52:53;;;;;;;1.40;1.20;;;;;;;26.21;40.49;97364.72;6199591;28;20251;-83
2022/05/03 13:55:56;;;;;;;1.50;1.20;;;;;;;26.16;42.78;97359.16;6227502;28;20243;-83
2022/05/03 13:58:58;;;;;;;1.50;1.00;;;;;;;28.84;34.30;97352.63;6228414;28;20311;-83
2022/05/03 14:02:03;;;;;;;0.70;0.70;;;;;;;30.86;27.07;97345.31;6208009;28;20263;-84
2022/05/03 14:05:06;;;;;;;2.72;1.20;;;;;;;33.36;24.48;97346.69;6202859;28;20235;-83
2022/05/03 14:08:10;;;;;;;1.05;0.85;;;;;;;34.01;23.92;97342.13;6225955;28;20312;-84
2022/05/03 14:11:12;;;;;;;1.23;1.13;;;;;;;34.98;22.25;97334.09;6193846;28;20228;-83
2022/05/03 14:14:14;;;;;;;1.38;1.00;;;;;;;35.67;22.79;97335.59;6226186;28;20322;-83
2022/05/03 14:17:16;;;;;;;1.52;1.20;;;;;;;36.97;20.33;97329.38;6210648;28;20757;-83
2022/05/03 14:20:19;;;;;;;1.10;1.00;;;;;;;36.83;21.19;97331.28;6210124;28;20215;-84
2022/05/03 14:23:21;;;;;;;1.33;1.10;;;;;;;33.80;22.37;97324.16;6209634;28;20266;-85
2022/05/03 14:26:25;;;;;;;1.40;0.90;;;;;;;33.22;24.50;97332.78;6210096;28;20239;-84
2022/05/03 14:29:27;;;;;;;1.40;0.85;;;;;;;34.98;22.79;97323.94;6209022;28;20703;-84
2022/05/03 14:32:29;;;;;;;0.80;0.80;;;;;;;37.11;20.42;97326.66;6202053;28;20236;-83
2022/05/03 14:35:31;;;;;;;0.80;0.80;;;;;;;38.30;18.60;97319.34;6194113;28;20246;-83
2022/05/03 14:38:34;;;;;;;1.85;0.90;;;;;;;39.26;17.19;97313.41;6190572;28;20541;-84
2022/05/03 14:41:38;;;;;;;0.82;0.82;;;;;;;40.20;15.41;97308.25;6211101;28;20324;-84
2022/05/03 14:44:41;;;;;;;1.63;1.00;;;;;;;40.80;15.06;97310.25;6208633;28;20591;-84
2022/05/03 14:47:44;;;;;;;1.50;1.20;;;;;;;41.32;13.12;97298.25;6202040;28;20592;-84
2022/05/03 14:50:46;;;;;;;1.17;1.00;;;;;;;41.14;12.60;97303.81;6215300;28;20258;-83
2022/05/03 14:53:49;;;;;;;0.90;0.90;;;;;;;40.86;13.00;97303.38;6210075;28;20220;-84
2022/05/03 16:03:05;;;;;;;1.42;0.95;;;;;;;30.72;24.14;97268.63;4950823;28;20256;-83
2022/05/03 16:06:07;;;;;;;0.98;0.85;;;;;;;27.84;27.47;97280.78;6212568;28;20200;-86
2022/05/03 16:09:10;;;;;;;1.15;1.08;;;;;;;25.92;31.52;97273.59;6213542;28;20243;-85
2022/05/03 16:12:13;;;;;;;1.52;1.00;;;;;;;24.45;35.30;97275.44;6196468;28;20220;-85
2022/05/03 16:15:17;;;;;;;1.38;1.20;;;;;;;23.33;37.71;97284.16;6199312;28;20303;-85
2022/05/03 16:18:25;;;;;;;1.90;1.08;;;;;;;22.47;41.04;97280.78;6189412;28;20228;-85
2022/05/03 16:21:29;;;;;;;2.05;1.00;;;;;;;21.82;42.65;97284.22;6212576;28;20628;-85
2022/05/03 16:24:32;;;;;;;1.40;1.17;;;;;;;21.22;44.11;97292.09;6196156;28;20215;-85
2022/05/03 16:27:34;;;;;;;3.17;1.20;;;;;;;20.78;44.57;97286.22;6230733;28;20293;-85
2022/05/03 16:30:37;;;;;;;1.77;1.10;;;;;;;20.33;45.43;97293.72;6196326;28;20223;-85
2022/05/03 16:33:39;;;;;;;1.90;1.00;;;;;;;19.98;46.47;97297.31;6195641;28;20227;-85
2022/05/03 16:43:26;;;;;;;4.00;1.40;;;;;;;18.71;50.04;97320.84;6228871;28;20256;-84
2022/05/03 16:46:28;;;;;;;1.63;1.20;;;;;;;18.24;51.12;97318.44;6212229;28;20230;-85
2022/05/03 16:49:32;;;;;;;1.33;1.20;;;;;;;17.83;52.97;97319.75;6187436;28;20232;-85
2022/05/03 16:52:38;;;;;;;3.10;1.70;;;;;;;17.43;54.48;97331.47;6196059;28;20730;-84
2022/05/03 16:55:40;;;;;;;3.97;1.47;;;;;;;17.21;55.75;97319.72;6195387;28;20231;-84
2022/05/03 16:58:43;;;;;;;1.47;1.30;;;;;;;16.91;56.38;97324.81;6211467;28;20236;-84
2022/05/03 17:01:54;;;;;;;2.77;1.30;;;;;;;16.64;56.96;97329.72;6195238;28;20231;-85
2022/05/03 17:04:56;;;;;;;1.70;1.60;;;;;;;16.41;57.94;97330.41;6211178;28;20224;-85
2022/05/03 17:07:59;;;;;;;1.50;1.40;;;;;;;16.23;58.59;97325.25;6227711;28;20318;-85
2022/05/03 17:11:01;;;;;;;2.10;1.23;;;;;;;16.08;59.20;97328.72;6229602;28;20228;-84
2022/05/03 17:14:04;;;;;;;1.53;1.30;;;;;;;15.96;59.39;97330.91;6211344;28;20228;-84
2022/05/03 17:17:06;;;;;;;2.70;1.63;;;;;;;15.74;60.29;97334.19;6227146;28;20239;-84
2022/05/03 17:20:10;;;;;;;2.70;1.33;;;;;;;15.54;61.17;97346.97;6228915;28;20231;-84
2022/05/03 17:23:13;;;;;;;1.37;1.27;;;;;;;15.35;62.04;97350.69;6228236;28;20637;-85
2022/05/03 17:26:15;;;;;;;1.73;1.50;;;;;;;15.14;62.06;97343.13;6211180;28;20232;-84
2022/05/03 17:29:17;;;;;;;3.70;1.30;;;;;;;14.92;62.53;97348.16;6227584;28;20224;-85
2022/05/03 17:32:19;;;;;;;3.03;1.40;;;;;;;14.76;62.69;97348.94;6195873;28;20223;-85
2022/05/03 17:35:22;;;;;;;3.20;1.63;;;;;;;14.61;63.36;97350.47;6226710;28;20557;-84
2022/05/03 17:38:25;;;;;;;1.47;1.37;;;;;;;14.44;64.00;97359.34;6209432;28;20603;-84
2022/05/03 17:41:29;;;;;;;2.40;1.53;;;;;;;14.26;64.32;97357.53;6210967;28;20258;-84
2022/05/03 17:44:31;;;;;;;1.50;1.40;;;;;;;14.16;65.03;97362.09;6226475;28;20261;-84
2022/05/03 17:47:36;;;;;;;2.97;1.40;;;;;;;13.94;65.67;97365.19;6205029;28;20572;-84
2022/05/03 17:50:38;;;;;;;1.60;1.47;;;;;;;13.77;65.91;97369.53;6193771;28;20232;-84
2022/05/03 17:53:53;;;;;;;2.00;1.67;;;;;;;13.57;66.01;97367.97;6214250;28;20223;-84
2022/05/03 17:56:55;;;;;;;4.70;1.70;;;;;;;13.41;66.88;97373.09;6226393;28;20703;-84
2022/05/03 17:59:58;;;;;;;1.77;1.67;;;;;;;13.24;67.11;97386.16;6227848;28;20564;-84
2022/05/03 18:03:00;;;;;;;1.77;1.60;;;;;;;13.11;67.30;97385.63;6226684;28;20235;-85
2022/05/03 18:06:03;;;;;;;1.70;1.60;;;;;;;12.97;67.67;97385.28;6193613;28;20703;-84
2022/05/03 18:09:06;;;;;;;2.50;1.87;;;;;;;12.82;68.08;97396.31;6211416;28;20203;-84
2022/05/03 18:12:12;;;;;;;3.50;1.73;;;;;;;12.70;68.08;97400.09;6210576;28;20231;-84
2022/05/03 18:15:14;;;;;;;1.70;1.60;;;;;;;12.61;68.14;97402.78;6211721;28;20216;-84
2022/05/03 18:18:17;;;;;;;1.70;1.60;;;;;;;12.47;68.72;97410.22;6193840;28;20249;-84
2022/05/03 18:21:19;;;;;;;1.60;1.40;;;;;;;12.33;68.99;97405.34;6204693;28;20699;-84
2022/05/03 18:24:21;;;;;;;3.00;1.93;;;;;;;12.22;69.32;97413.41;6204811;28;20232;-84
2022/05/03 18:27:23;;;;;;;2.77;1.70;;;;;;;12.14;69.53;97419.41;6210554;28;20234;-84
2022/05/03 18:30:27;;;;;;;2.13;1.90;;;;;;;12.08;70.11;97435.81;6212785;28;20234;-84